createdAt,value
2022-08-21T00:01:15.864Z,20.45
2022-08-21T00:03:48.807Z,20.41
2022-08-21T00:06:21.319Z,20.42
2022-08-21T00:08:55.118Z,20.42
2022-08-21T00:11:28.337Z,20.38
2022-08-21T00:14:00.888Z,20.37
2022-08-21T00:16:33.615Z,20.34
2022-08-21T00:19:07.487Z,20.31
2022-08-21T00:21:41.054Z,20.29
2022-08-21T00:24:15.256Z,20.24
2022-08-21T00:26:49.656Z,20.22
2022-08-21T00:29:23.068Z,20.21
2022-08-21T00:31:55.503Z,20.18
2022-08-21T00:34:28.175Z,20.12
2022-08-21T00:37:00.654Z,20.08
2022-08-21T00:39:34.000Z,20.05
2022-08-21T00:42:06.722Z,20.02
2022-08-21T00:44:39.783Z,19.98
2022-08-21T00:47:13.422Z,19.94
2022-08-21T00:49:46.681Z,19.92
2022-08-21T00:52:26.731Z,19.86
2022-08-21T00:55:00.199Z,19.81
2022-08-21T00:57:44.953Z,19.77
2022-08-21T01:00:21.488Z,19.75
2022-08-21T01:02:55.172Z,19.75
2022-08-21T01:05:28.089Z,19.74
2022-08-21T01:08:02.160Z,19.74
2022-08-21T01:10:34.832Z,19.73
2022-08-21T01:13:10.907Z,19.75
2022-08-21T01:15:47.112Z,19.74
2022-08-21T01:18:21.535Z,19.72
2022-08-21T01:21:16.899Z,19.70
2022-08-21T01:23:52.428Z,19.72
2022-08-21T01:26:34.229Z,19.74
2022-08-21T01:29:25.009Z,19.73
2022-08-21T01:31:58.031Z,19.72
2022-08-21T01:34:30.550Z,19.73
2022-08-21T01:37:03.892Z,19.76
2022-08-21T01:39:37.547Z,19.79
2022-08-21T01:42:11.395Z,19.77
2022-08-21T01:44:45.062Z,19.79
2022-08-21T01:47:18.260Z,19.81
2022-08-21T01:49:50.909Z,19.86
2022-08-21T01:52:23.338Z,19.88
2022-08-21T01:54:55.891Z,19.88
2022-08-21T01:57:29.617Z,19.90
2022-08-21T02:00:02.082Z,19.93
2022-08-21T02:02:37.651Z,19.94
2022-08-21T02:05:11.007Z,19.98
2022-08-21T02:07:49.441Z,19.97
2022-08-21T02:10:27.701Z,20.01
2022-08-21T02:13:02.621Z,20.09
2022-08-21T02:15:35.251Z,20.18
2022-08-21T02:18:08.160Z,20.22
2022-08-21T02:20:44.102Z,20.22
2022-08-21T02:23:17.125Z,20.22
2022-08-21T02:25:51.603Z,20.23
2022-08-21T02:28:24.066Z,20.27
2022-08-21T02:30:57.995Z,20.27
2022-08-21T02:33:30.742Z,20.29
2022-08-21T02:36:03.785Z,20.31
2022-08-21T02:38:39.198Z,20.31
2022-08-21T02:41:16.420Z,20.31
2022-08-21T02:43:49.657Z,20.32
2022-08-21T02:46:22.664Z,20.30
2022-08-21T02:48:56.917Z,20.26
2022-08-21T02:51:29.337Z,20.26
2022-08-21T02:54:02.890Z,20.26
2022-08-21T02:56:35.229Z,20.28
2022-08-21T02:59:08.217Z,20.27
2022-08-21T03:01:41.463Z,20.23
2022-08-21T03:04:15.471Z,20.22
2022-08-21T03:06:48.144Z,20.18
2022-08-21T03:09:20.620Z,20.16
2022-08-21T03:11:53.742Z,20.14
2022-08-21T03:14:26.744Z,20.09
2022-08-21T03:16:59.269Z,20.08
2022-08-21T03:19:31.709Z,20.12
2022-08-21T03:22:05.432Z,20.12
2022-08-21T03:24:39.010Z,20.13
2022-08-21T03:27:14.316Z,20.15
2022-08-21T03:29:47.998Z,20.18
2022-08-21T03:32:20.737Z,20.17
2022-08-21T03:34:53.187Z,20.16
2022-08-21T03:37:25.737Z,20.16
2022-08-21T03:39:58.540Z,20.17
2022-08-21T03:42:31.053Z,20.20
2022-08-21T03:45:03.962Z,20.27
2022-08-21T03:47:37.878Z,20.33
2022-08-21T03:50:10.918Z,20.38
2022-08-21T03:52:44.670Z,20.45
2022-08-21T03:55:17.716Z,20.47
2022-08-21T03:57:50.466Z,20.43
2022-08-21T04:00:24.871Z,20.40
2022-08-21T04:02:57.767Z,20.39
2022-08-21T04:05:31.224Z,20.40
2022-08-21T04:08:07.683Z,20.44
2022-08-21T04:10:41.152Z,20.54
2022-08-21T04:13:13.769Z,20.62
2022-08-21T04:15:46.343Z,20.67
2022-08-21T04:18:20.074Z,20.76
2022-08-21T04:20:54.668Z,20.83
2022-08-21T04:23:27.306Z,20.92
2022-08-21T04:26:00.659Z,21.02
2022-08-21T04:28:33.615Z,21.08
2022-08-21T04:31:06.446Z,21.19
2022-08-21T04:33:39.947Z,21.27
2022-08-21T04:36:12.864Z,21.33
2022-08-21T04:38:46.648Z,21.42
2022-08-21T04:41:20.701Z,21.53
2022-08-21T04:43:57.414Z,21.62
2022-08-21T04:46:30.808Z,21.63
2022-08-21T04:49:04.729Z,21.61
2022-08-21T04:51:41.087Z,21.60
2022-08-21T04:54:19.796Z,21.57
2022-08-21T04:57:16.246Z,21.56
2022-08-21T04:59:51.945Z,21.54
2022-08-21T05:02:24.351Z,21.57
2022-08-21T05:04:57.340Z,21.66
2022-08-21T05:07:42.352Z,21.80
2022-08-21T05:10:06.504Z,21.88
2022-08-21T05:12:39.129Z,21.98
2022-08-21T05:15:13.734Z,22.09
2022-08-21T05:17:52.335Z,22.18
2022-08-21T05:23:06.422Z,22.36
2022-08-21T05:25:39.505Z,22.41
2022-08-21T05:28:14.423Z,22.41
2022-08-21T05:30:47.339Z,22.47
2022-08-21T05:33:20.170Z,22.60
2022-08-21T05:35:56.782Z,22.77
2022-08-21T05:38:30.109Z,22.88
2022-08-21T05:41:03.152Z,22.96
2022-08-21T05:43:37.350Z,23.03
2022-08-21T05:46:10.972Z,23.10
2022-08-21T05:48:43.359Z,23.18
2022-08-21T05:51:17.429Z,23.26
2022-08-21T05:53:50.848Z,23.32
2022-08-21T05:56:23.357Z,23.39
2022-08-21T05:58:56.871Z,23.50
2022-08-21T06:01:29.551Z,23.58
2022-08-21T06:04:05.472Z,23.67
2022-08-21T06:06:38.048Z,23.84
2022-08-21T06:09:10.520Z,24.05
2022-08-21T06:11:43.548Z,24.25
2022-08-21T06:14:18.993Z,24.42
2022-08-21T06:16:51.439Z,24.71
2022-08-21T06:19:23.822Z,24.88
2022-08-21T06:21:56.788Z,24.90
2022-08-21T06:24:29.973Z,24.97
2022-08-21T06:27:11.406Z,25.08
2022-08-21T06:29:44.867Z,25.22
2022-08-21T06:32:17.497Z,25.37
2022-08-21T06:34:50.534Z,25.50
2022-08-21T06:37:23.419Z,25.63
2022-08-21T06:39:57.248Z,25.78
2022-08-21T06:42:32.223Z,25.91
2022-08-21T06:45:05.143Z,26.07
2022-08-21T06:47:37.927Z,26.28
2022-08-21T06:50:11.824Z,26.34
2022-08-21T06:52:44.167Z,26.35
2022-08-21T06:55:21.234Z,26.35
2022-08-21T06:57:52.843Z,26.47
2022-08-21T07:00:25.629Z,26.65
2022-08-21T07:03:00.048Z,26.85
2022-08-21T07:05:35.802Z,26.98
2022-08-21T07:08:08.328Z,27.13
2022-08-21T07:10:42.071Z,27.20
2022-08-21T07:13:15.502Z,27.22
2022-08-21T07:15:48.073Z,27.33
2022-08-21T07:18:21.198Z,27.42
2022-08-21T07:20:54.994Z,27.53
2022-08-21T07:23:34.774Z,27.69
2022-08-21T07:26:09.025Z,27.83
2022-08-21T07:28:42.383Z,28.00
2022-08-21T07:31:17.390Z,28.18
2022-08-21T07:33:50.479Z,28.38
2022-08-21T07:36:25.134Z,28.61
2022-08-21T07:38:57.769Z,28.61
2022-08-21T07:41:31.176Z,28.77
2022-08-21T07:44:04.359Z,28.92
2022-08-21T07:46:39.094Z,29.13
2022-08-21T07:49:12.674Z,29.35
2022-08-21T07:51:45.345Z,29.51
2022-08-21T07:54:18.031Z,29.58
2022-08-21T07:56:52.429Z,29.67
2022-08-21T07:59:25.299Z,29.75
2022-08-21T08:01:58.186Z,29.67
2022-08-21T08:04:30.687Z,29.64
2022-08-21T08:07:03.068Z,29.61
2022-08-21T08:09:37.570Z,29.60
2022-08-21T08:12:11.351Z,29.75
2022-08-21T08:14:44.410Z,30.02
2022-08-21T08:17:16.823Z,30.19
2022-08-21T08:19:50.948Z,30.39
2022-08-21T08:22:25.068Z,30.45
2022-08-21T08:24:57.819Z,30.53
2022-08-21T08:27:30.821Z,30.66
2022-08-21T08:30:04.175Z,30.69
2022-08-21T08:32:37.609Z,30.67
2022-08-21T08:35:10.707Z,30.59
2022-08-21T08:37:43.899Z,30.65
2022-08-21T08:40:53.241Z,30.73
2022-08-21T08:43:26.415Z,30.89
2022-08-21T08:46:00.133Z,31.04
2022-08-21T08:48:53.598Z,30.92
2022-08-21T08:51:46.438Z,30.86
2022-08-21T08:54:43.712Z,31.04
2022-08-21T08:57:22.710Z,31.19
2022-08-21T08:59:59.062Z,31.18
2022-08-21T09:02:34.692Z,31.12
2022-08-21T09:05:09.937Z,31.14
2022-08-21T09:08:06.365Z,31.05
2022-08-21T09:11:04.155Z,31.00
2022-08-21T09:13:45.029Z,31.21
2022-08-21T09:16:25.477Z,31.39
2022-08-21T09:19:24.021Z,31.52
2022-08-21T09:22:20.833Z,31.52
2022-08-21T09:25:19.521Z,31.53
2022-08-21T09:27:52.319Z,31.52
2022-08-21T09:30:31.727Z,31.62
2022-08-21T09:33:04.143Z,31.70
2022-08-21T09:35:38.370Z,31.68
2022-08-21T09:38:12.406Z,31.67
2022-08-21T09:40:46.495Z,31.72
2022-08-21T09:43:23.976Z,31.70
2022-08-21T09:46:16.497Z,31.66
2022-08-21T09:48:54.917Z,31.70
2022-08-21T09:51:30.818Z,31.66
2022-08-21T09:54:11.812Z,31.66
2022-08-21T09:57:22.524Z,31.78
2022-08-21T09:59:54.978Z,31.78
2022-08-21T10:02:32.330Z,31.77
2022-08-21T10:05:12.937Z,31.88
2022-08-21T10:07:45.899Z,31.94
2022-08-21T10:10:24.064Z,31.96
2022-08-21T10:13:21.169Z,31.93
2022-08-21T10:16:19.148Z,32.12
2022-08-21T10:19:39.712Z,32.33
2022-08-21T10:22:35.082Z,32.30
2022-08-21T10:25:50.436Z,32.38
2022-08-21T10:28:36.212Z,32.49
2022-08-21T10:31:28.681Z,32.59
2022-08-21T10:34:19.356Z,32.47
2022-08-21T10:37:20.219Z,32.52
2022-08-21T10:40:35.060Z,32.59
2022-08-21T10:43:21.236Z,32.57
2022-08-21T10:46:01.328Z,32.59
2022-08-21T10:49:19.977Z,32.57
2022-08-21T10:52:21.221Z,32.64
2022-08-21T10:55:02.735Z,32.65
2022-08-21T10:57:47.687Z,32.45
2022-08-21T11:00:48.445Z,32.30
2022-08-21T11:03:36.217Z,32.13
2022-08-21T11:06:18.185Z,32.01
2022-08-21T11:08:58.557Z,32.06
2022-08-21T11:11:54.692Z,32.08
2022-08-21T11:14:38.253Z,32.07
2022-08-21T11:17:13.882Z,32.18
2022-08-21T11:20:25.517Z,32.37
2022-08-21T11:23:12.236Z,32.35
2022-08-21T11:26:08.598Z,32.36
2022-08-21T11:28:55.664Z,32.53
2022-08-21T11:31:38.820Z,32.74
2022-08-21T11:34:37.004Z,32.64
2022-08-21T11:37:43.472Z,32.39
2022-08-21T11:40:46.056Z,32.47
2022-08-21T11:43:45.072Z,32.51
2022-08-21T11:46:50.393Z,32.54
2022-08-21T11:49:56.250Z,32.54
2022-08-21T11:52:37.001Z,32.54
2022-08-21T11:55:23.825Z,32.62
2022-08-21T11:58:12.972Z,32.61
2022-08-21T12:00:55.817Z,32.63
2022-08-21T12:03:38.408Z,32.54
2022-08-21T12:06:24.197Z,32.52
2022-08-21T12:09:02.468Z,32.62
2022-08-21T12:11:50.551Z,32.69
2022-08-21T12:14:25.119Z,32.74
2022-08-21T12:17:00.751Z,32.56
2022-08-21T12:19:35.921Z,32.48
2022-08-21T12:22:12.870Z,32.40
2022-08-21T12:24:51.112Z,32.23
2022-08-21T12:27:55.077Z,32.17
2022-08-21T12:30:38.432Z,32.04
2022-08-21T12:33:38.535Z,32.03
2022-08-21T12:36:27.234Z,31.98
2022-08-21T12:39:03.608Z,31.54
2022-08-21T12:41:41.116Z,31.29
2022-08-21T12:44:21.047Z,31.21
2022-08-21T12:47:07.447Z,31.28
2022-08-21T12:49:51.998Z,31.38
2022-08-21T12:52:28.964Z,31.43
2022-08-21T12:55:01.583Z,31.41
2022-08-21T12:57:34.430Z,31.38
2022-08-21T13:00:13.923Z,31.37
2022-08-21T13:02:52.041Z,31.28
2022-08-21T13:05:38.129Z,31.20
2022-08-21T13:08:13.929Z,31.16
2022-08-21T13:10:46.421Z,31.14
2022-08-21T13:13:28.425Z,31.17
2022-08-21T13:16:07.273Z,31.20
2022-08-21T13:18:58.461Z,31.17
2022-08-21T13:21:37.893Z,31.07
2022-08-21T13:26:53.890Z,30.60
2022-08-21T13:29:28.162Z,30.55
2022-08-21T13:32:07.959Z,30.51
2022-08-21T13:34:40.481Z,30.37
2022-08-21T13:37:13.368Z,30.36
2022-08-21T13:39:53.449Z,30.33
2022-08-21T13:42:26.740Z,30.30
2022-08-21T13:44:59.250Z,30.28
2022-08-21T13:47:31.937Z,30.21
2022-08-21T13:50:05.040Z,30.04
2022-08-21T13:52:39.610Z,29.84
2022-08-21T13:55:15.398Z,29.64
2022-08-21T13:57:47.981Z,29.52
2022-08-21T14:00:25.698Z,29.52
2022-08-21T14:03:07.234Z,29.56
2022-08-21T14:05:42.658Z,29.61
2022-08-21T14:08:19.566Z,29.58
2022-08-21T14:10:57.212Z,29.43
2022-08-21T14:13:59.016Z,29.22
2022-08-21T14:16:46.351Z,29.07
2022-08-21T14:19:38.987Z,28.87
2022-08-21T14:22:51.504Z,28.77
2022-08-21T14:25:34.340Z,28.71
2022-08-21T14:28:23.593Z,28.71
2022-08-21T14:30:58.485Z,28.70
2022-08-21T14:33:34.623Z,28.64
2022-08-21T14:36:07.193Z,28.59
2022-08-21T14:38:42.897Z,28.52
2022-08-21T14:41:24.796Z,28.49
2022-08-21T14:44:06.216Z,28.41
2022-08-21T14:46:39.156Z,28.33
2022-08-21T14:49:10.746Z,28.29
2022-08-21T14:51:54.376Z,28.22
2022-08-21T14:54:32.492Z,28.14
2022-08-21T14:57:09.835Z,28.06
2022-08-21T14:59:43.884Z,27.99
2022-08-21T15:02:16.431Z,27.92
2022-08-21T15:04:48.934Z,27.86
2022-08-21T15:07:21.404Z,27.78
2022-08-21T15:09:54.028Z,27.66
2022-08-21T15:12:27.632Z,27.56
2022-08-21T15:15:00.238Z,27.46
2022-08-21T15:17:34.677Z,27.41
2022-08-21T15:20:08.971Z,27.33
2022-08-21T15:22:47.949Z,27.21
2022-08-21T15:25:16.758Z,27.15
2022-08-21T15:27:49.682Z,27.12
2022-08-21T15:30:22.289Z,27.09
2022-08-21T15:32:54.970Z,27.04
2022-08-21T15:35:28.163Z,27.01
2022-08-21T15:38:00.640Z,26.97
2022-08-21T15:40:34.249Z,26.94
2022-08-21T15:43:07.661Z,26.93
2022-08-21T15:45:40.370Z,26.89
2022-08-21T15:48:13.913Z,26.78
2022-08-21T15:50:46.639Z,26.78
2022-08-21T15:53:19.206Z,26.72
2022-08-21T15:55:51.715Z,26.62
2022-08-21T15:58:24.211Z,26.58
2022-08-21T16:00:57.683Z,26.53
2022-08-21T16:03:30.138Z,26.37
2022-08-21T16:06:03.257Z,26.37
2022-08-21T16:08:36.502Z,26.33
2022-08-21T16:11:10.672Z,26.27
2022-08-21T16:13:46.058Z,26.22
2022-08-21T16:16:24.230Z,26.15
2022-08-21T16:18:59.373Z,26.10
2022-08-21T16:21:32.044Z,26.06
2022-08-21T16:24:04.778Z,26.01
2022-08-21T16:26:38.475Z,25.96
2022-08-21T16:29:12.347Z,25.92
2022-08-21T16:31:44.807Z,25.88
2022-08-21T16:34:20.624Z,25.84
2022-08-21T16:36:53.193Z,25.81
2022-08-21T16:39:25.751Z,25.76
2022-08-21T16:41:58.254Z,25.71
2022-08-21T16:44:31.178Z,25.66
2022-08-21T16:47:05.124Z,25.61
2022-08-21T16:49:39.302Z,25.56
2022-08-21T16:52:13.046Z,25.51
2022-08-21T16:54:45.638Z,25.48
2022-08-21T16:57:18.503Z,25.43
2022-08-21T16:59:51.085Z,25.36
2022-08-21T17:02:33.406Z,25.31
2022-08-21T17:05:11.401Z,25.28
2022-08-21T17:07:43.534Z,25.23
2022-08-21T17:10:38.776Z,25.18
2022-08-21T17:13:12.607Z,25.12
2022-08-21T17:15:45.115Z,25.06
2022-08-21T17:18:20.536Z,25.01
2022-08-21T17:20:53.566Z,24.97
2022-08-21T17:23:27.527Z,24.95
2022-08-21T17:26:00.137Z,24.89
2022-08-21T17:28:36.492Z,24.85
2022-08-21T17:31:10.674Z,24.78
2022-08-21T17:33:48.745Z,24.74
2022-08-21T17:36:28.111Z,24.71
2022-08-21T17:39:01.161Z,24.67
2022-08-21T17:41:35.222Z,24.64
2022-08-21T17:44:11.096Z,24.59
2022-08-21T17:46:44.736Z,24.53
2022-08-21T17:49:17.581Z,24.51
2022-08-21T17:51:51.253Z,24.48
2022-08-21T17:54:25.672Z,24.50
2022-08-21T17:56:58.772Z,24.48
2022-08-21T17:59:32.342Z,24.44
2022-08-21T18:02:05.502Z,24.44
2022-08-21T18:04:41.203Z,24.41
2022-08-21T18:07:13.679Z,24.36
2022-08-21T18:09:48.356Z,24.35
2022-08-21T18:12:21.047Z,24.34
2022-08-21T18:14:54.750Z,24.34
2022-08-21T18:17:29.698Z,24.32
2022-08-21T18:20:03.083Z,24.28
2022-08-21T18:22:36.235Z,24.22
2022-08-21T18:25:09.305Z,24.08
2022-08-21T18:27:43.460Z,24.08
2022-08-21T18:30:19.260Z,24.06
2022-08-21T18:32:56.462Z,24.07
2022-08-21T18:35:29.418Z,24.06
2022-08-21T18:38:05.403Z,24.03
2022-08-21T18:40:43.677Z,24.03
2022-08-21T18:43:19.273Z,23.98
2022-08-21T18:45:54.391Z,23.98
2022-08-21T18:48:29.384Z,23.96
2022-08-21T18:51:03.513Z,23.92
2022-08-21T18:53:37.040Z,23.92
2022-08-21T18:56:16.052Z,23.88
2022-08-21T18:58:48.130Z,23.82
2022-08-21T19:01:21.401Z,23.79
2022-08-21T19:03:56.097Z,23.76
2022-08-21T19:06:30.171Z,23.73
2022-08-21T19:09:05.457Z,23.72
2022-08-21T19:11:43.089Z,23.71
2022-08-21T19:14:29.777Z,23.70
2022-08-21T19:17:03.265Z,23.68
2022-08-21T19:19:39.414Z,23.65
2022-08-21T19:22:13.929Z,23.63
2022-08-21T19:24:49.935Z,23.57
2022-08-21T19:27:26.373Z,23.57
2022-08-21T19:29:59.589Z,23.55
2022-08-21T19:32:33.043Z,23.52
2022-08-21T19:35:09.757Z,23.48
2022-08-21T19:37:45.167Z,23.41
2022-08-21T19:40:17.148Z,23.39
2022-08-21T19:42:49.672Z,23.37
2022-08-21T19:45:28.717Z,23.33
2022-08-21T19:47:59.006Z,23.31
2022-08-21T19:50:34.106Z,23.30
2022-08-21T19:53:12.224Z,23.28
2022-08-21T19:55:48.203Z,23.23
2022-08-21T19:58:26.697Z,23.20
2022-08-21T20:00:59.623Z,23.16
2022-08-21T20:03:33.141Z,23.12
2022-08-21T20:06:13.955Z,23.07
2022-08-21T20:08:48.424Z,23.06
2022-08-21T20:11:45.855Z,23.04
2022-08-21T20:14:23.840Z,23.02
2022-08-21T20:16:56.468Z,22.97
2022-08-21T20:19:30.949Z,22.95
2022-08-21T20:22:03.603Z,22.93
2022-08-21T20:24:37.620Z,22.91
2022-08-21T20:27:16.720Z,22.88
2022-08-21T20:32:23.344Z,22.85
2022-08-21T20:34:55.827Z,22.86
2022-08-21T20:37:36.248Z,22.85
2022-08-21T20:40:12.766Z,22.82
